Terminal Aerodrome Forecast
Issued by NWS

Home | Current Version | Previous Version | Text Only | Print | Product List | Glossary On
Versions: 1 2 3 4 5 6 7 8 9 10 11 12 13 14 15 16 17 18 19 20
780
FTUS45 KMSO 180526
TAFSMN
TAF
KSMN 180526Z 1806/1906 25011KT 4SM -RASN BR BKN030 OVC040
     FM181000 24011KT 6SM -SN BR OVC040
     FM181700 32008G18KT 3SM -SN BR BKN020 OVC030=

USA.gov is the U.S. government's official web portal to all federal, state and local government web resources and services.